createdAt,value
2022-12-19T00:01:39.207Z,101363.00
2022-12-19T00:04:09.461Z,101370.00
2022-12-19T00:06:41.949Z,101367.00
2022-12-19T00:09:12.464Z,101362.00
2022-12-19T00:11:40.419Z,101376.00
2022-12-19T00:14:09.652Z,101372.00
2022-12-19T00:16:37.072Z,101402.00
2022-12-19T00:19:04.747Z,101386.00
2022-12-19T00:21:35.055Z,101375.00
2022-12-19T00:24:06.593Z,101365.00
2022-12-19T00:26:49.509Z,101372.00
2022-12-19T00:29:16.811Z,101375.00
2022-12-19T00:31:44.226Z,101365.00
2022-12-19T00:34:11.597Z,101374.00
2022-12-19T00:36:38.994Z,101364.00
2022-12-19T00:39:07.772Z,101365.00
2022-12-19T00:41:37.780Z,101367.00
2022-12-19T00:44:12.070Z,101355.00
2022-12-19T00:46:39.429Z,101351.00
2022-12-19T00:49:06.938Z,101334.00
2022-12-19T00:51:36.850Z,101338.00
2022-12-19T00:54:06.670Z,101339.00
2022-12-19T00:56:37.488Z,101348.00
2022-12-19T00:59:05.854Z,101371.00
2022-12-19T01:01:34.838Z,101342.00
2022-12-19T01:06:51.046Z,101346.00
2022-12-19T01:09:20.923Z,101341.00
2022-12-19T01:12:06.998Z,101338.00
2022-12-19T01:14:34.638Z,101337.00
2022-12-19T01:17:01.922Z,101332.00
2022-12-19T01:19:29.210Z,101329.00
2022-12-19T01:21:56.486Z,101316.00
2022-12-19T01:24:24.143Z,101317.00
2022-12-19T01:26:52.151Z,101306.00
2022-12-19T01:29:19.514Z,101307.00
2022-12-19T01:31:46.871Z,101317.00
2022-12-19T01:34:14.268Z,101308.00
2022-12-19T01:36:41.560Z,101320.00
2022-12-19T01:39:08.897Z,101326.00
2022-12-19T01:41:36.943Z,101339.00
2022-12-19T01:44:07.088Z,101319.00
2022-12-19T01:46:38.137Z,101310.00
2022-12-19T01:49:12.421Z,101306.00
2022-12-19T01:51:43.338Z,101299.00
2022-12-19T01:54:14.558Z,101279.00
2022-12-19T01:56:45.546Z,101277.00
2022-12-19T01:59:17.257Z,101271.00
2022-12-19T02:01:51.827Z,101265.00
2022-12-19T02:04:20.889Z,101282.00
2022-12-19T02:06:48.767Z,101275.00
2022-12-19T02:09:17.032Z,101288.00
2022-12-19T02:11:44.431Z,101278.00
2022-12-19T02:14:12.504Z,101279.00
2022-12-19T02:16:49.936Z,101251.00
2022-12-19T02:19:51.416Z,101253.00
2022-12-19T02:22:25.551Z,101251.00
2022-12-19T02:25:17.026Z,101246.00
2022-12-19T02:28:16.508Z,101241.00
2022-12-19T02:30:57.786Z,101236.00
2022-12-19T02:33:33.768Z,101234.00
2022-12-19T02:36:07.823Z,101242.00
2022-12-19T02:38:40.984Z,101227.00
2022-12-19T02:41:15.362Z,101257.00
2022-12-19T02:43:47.242Z,101248.00
2022-12-19T02:46:19.017Z,101261.00
2022-12-19T02:48:46.955Z,101266.00
2022-12-19T02:51:14.325Z,101265.00
2022-12-19T02:53:41.969Z,101269.00
2022-12-19T02:56:27.286Z,101263.00
2022-12-19T02:59:15.105Z,101260.00
2022-12-19T03:01:49.624Z,101265.00
2022-12-19T03:04:29.025Z,101285.00
2022-12-19T03:07:02.012Z,101279.00
2022-12-19T03:09:40.354Z,101272.00
2022-12-19T03:12:17.317Z,101269.00
2022-12-19T03:14:46.508Z,101281.00
2022-12-19T03:17:14.577Z,101285.00
2022-12-19T03:19:42.285Z,101293.00
2022-12-19T03:22:09.560Z,101306.00
2022-12-19T03:24:36.890Z,101302.00
2022-12-19T03:27:08.280Z,101314.00
2022-12-19T03:29:39.808Z,101308.00
2022-12-19T03:32:10.322Z,101312.00
2022-12-19T03:34:42.479Z,101309.00
2022-12-19T03:37:14.510Z,101305.00
2022-12-19T03:39:45.213Z,101306.00
2022-12-19T03:42:33.468Z,101289.00
2022-12-19T03:45:02.534Z,101296.00
2022-12-19T03:47:36.962Z,101293.00
2022-12-19T03:50:06.702Z,101296.00
2022-12-19T03:52:40.114Z,101300.00
2022-12-19T03:55:13.407Z,101294.00
2022-12-19T03:57:44.409Z,101310.00
2022-12-19T04:00:14.383Z,101306.00
2022-12-19T04:02:45.965Z,101322.00
2022-12-19T04:05:18.485Z,101324.00
2022-12-19T04:07:46.037Z,101323.00
2022-12-19T04:10:17.297Z,101322.00
2022-12-19T04:12:50.288Z,101309.00
2022-12-19T04:15:17.819Z,101311.00
2022-12-19T04:17:50.157Z,101296.00
2022-12-19T04:20:19.685Z,101293.00
2022-12-19T04:22:52.448Z,101284.00
2022-12-19T04:25:29.354Z,101289.00
2022-12-19T04:28:02.315Z,101274.00
2022-12-19T04:30:29.975Z,101267.00
2022-12-19T04:33:03.898Z,101260.00
2022-12-19T04:35:31.977Z,101256.00
2022-12-19T04:37:59.275Z,101256.00
2022-12-19T04:40:26.658Z,101273.00
2022-12-19T04:42:53.918Z,101268.00
2022-12-19T04:45:21.265Z,101277.00
2022-12-19T04:47:48.668Z,101269.00
2022-12-19T04:50:16.404Z,101285.00
2022-12-19T04:52:44.448Z,101274.00
2022-12-19T04:55:11.727Z,101274.00
2022-12-19T04:57:39.029Z,101290.00
2022-12-19T05:00:08.013Z,101296.00
2022-12-19T05:02:37.374Z,101285.00
2022-12-19T05:05:05.529Z,101263.00
2022-12-19T05:07:32.824Z,101276.00
2022-12-19T05:10:00.837Z,101279.00
2022-12-19T05:12:29.598Z,101268.00
2022-12-19T05:14:57.059Z,101258.00
2022-12-19T05:17:24.668Z,101244.00
2022-12-19T05:19:52.015Z,101244.00
2022-12-19T05:22:19.299Z,101239.00
2022-12-19T05:24:46.625Z,101254.00
2022-12-19T05:27:14.607Z,101255.00
2022-12-19T05:29:42.041Z,101248.00
2022-12-19T05:32:09.379Z,101234.00
2022-12-19T05:34:36.746Z,101239.00
2022-12-19T05:37:04.039Z,101233.00
2022-12-19T05:39:31.390Z,101246.00
2022-12-19T05:41:58.686Z,101242.00
2022-12-19T05:44:28.093Z,101240.00
2022-12-19T05:46:55.512Z,101239.00
2022-12-19T05:49:22.904Z,101238.00
2022-12-19T05:51:51.745Z,101247.00
2022-12-19T05:54:19.005Z,101245.00
2022-12-19T05:56:46.355Z,101241.00
2022-12-19T05:59:13.671Z,101236.00
2022-12-19T06:01:42.094Z,101234.00
2022-12-19T06:04:09.495Z,101244.00
2022-12-19T06:06:37.407Z,101245.00
2022-12-19T06:09:04.821Z,101237.00
2022-12-19T06:11:32.255Z,101229.00
2022-12-19T06:13:59.533Z,101236.00
2022-12-19T06:16:26.882Z,101238.00
2022-12-19T06:18:54.890Z,101245.00
2022-12-19T06:21:23.116Z,101246.00
2022-12-19T06:23:50.651Z,101254.00
2022-12-19T06:26:20.330Z,101250.00
2022-12-19T06:28:48.304Z,101266.00
2022-12-19T06:31:16.247Z,101258.00
2022-12-19T06:33:43.600Z,101264.00
2022-12-19T06:36:14.268Z,101254.00
2022-12-19T06:38:41.675Z,101258.00
2022-12-19T06:41:28.157Z,101251.00
2022-12-19T06:43:58.236Z,101234.00
2022-12-19T06:46:25.565Z,101220.00
2022-12-19T06:48:52.881Z,101229.00
2022-12-19T06:51:20.893Z,101216.00
2022-12-19T06:53:48.242Z,101221.00
2022-12-19T06:56:16.756Z,101223.00
2022-12-19T06:58:44.113Z,101217.00
2022-12-19T07:01:17.787Z,101229.00
2022-12-19T07:03:46.805Z,101215.00
2022-12-19T07:06:14.483Z,101228.00
2022-12-19T07:08:42.805Z,101233.00
2022-12-19T07:11:10.097Z,101228.00
2022-12-19T07:13:37.402Z,101231.00
2022-12-19T07:16:06.148Z,101233.00
2022-12-19T07:18:37.902Z,101238.00
2022-12-19T07:21:06.482Z,101243.00
2022-12-19T07:23:35.279Z,101234.00
2022-12-19T07:26:03.586Z,101231.00
2022-12-19T07:28:32.589Z,101230.00
2022-12-19T07:30:59.968Z,101223.00
2022-12-19T07:33:27.336Z,101218.00
2022-12-19T07:35:54.599Z,101226.00
2022-12-19T07:38:21.932Z,101222.00
2022-12-19T07:40:49.281Z,101236.00
2022-12-19T07:43:17.293Z,101231.00
2022-12-19T07:45:44.594Z,101239.00
2022-12-19T07:48:11.989Z,101231.00
2022-12-19T07:50:39.234Z,101240.00
2022-12-19T07:53:06.543Z,101245.00
2022-12-19T07:55:34.009Z,101241.00
2022-12-19T07:58:01.283Z,101234.00
2022-12-19T08:00:29.921Z,101236.00
2022-12-19T08:02:58.150Z,101243.00
2022-12-19T08:05:26.205Z,101251.00
2022-12-19T08:07:56.523Z,101239.00
2022-12-19T08:10:24.002Z,101234.00
2022-12-19T08:12:51.401Z,101257.00
2022-12-19T08:15:18.750Z,101249.00
2022-12-19T08:17:46.891Z,101236.00
2022-12-19T08:20:14.331Z,101234.00
2022-12-19T08:22:41.694Z,101232.00
2022-12-19T08:25:10.564Z,101220.00
2022-12-19T08:27:39.010Z,101217.00
2022-12-19T08:30:08.148Z,101219.00
2022-12-19T08:32:36.335Z,101217.00
2022-12-19T08:35:06.094Z,101209.00
2022-12-19T08:37:35.950Z,101209.00
2022-12-19T08:40:03.654Z,101208.00
2022-12-19T08:42:31.654Z,101199.00
2022-12-19T08:44:59.103Z,101209.00
2022-12-19T08:47:26.417Z,101188.00
2022-12-19T08:49:54.171Z,101194.00
2022-12-19T08:52:22.184Z,101193.00
2022-12-19T08:54:58.586Z,101184.00
2022-12-19T08:57:25.987Z,101191.00
2022-12-19T08:59:53.286Z,101183.00
2022-12-19T09:02:22.043Z,101179.00
2022-12-19T09:05:57.477Z,101178.00
2022-12-19T09:07:39.096Z,101189.00
2022-12-19T09:10:07.611Z,101178.00
2022-12-19T09:12:34.940Z,101183.00
2022-12-19T09:15:02.291Z,101181.00
2022-12-19T09:17:29.631Z,101164.00
2022-12-19T09:19:56.971Z,101178.00
2022-12-19T09:22:29.464Z,101175.00
2022-12-19T09:24:57.740Z,101169.00
2022-12-19T09:27:25.061Z,101160.00
2022-12-19T09:29:52.444Z,101152.00
2022-12-19T09:32:19.821Z,101147.00
2022-12-19T09:34:47.137Z,101149.00
2022-12-19T09:37:16.696Z,101152.00
2022-12-19T09:39:45.826Z,101135.00
2022-12-19T09:42:46.827Z,101146.00
2022-12-19T09:45:31.395Z,101146.00
2022-12-19T09:48:01.457Z,101146.00
2022-12-19T09:50:39.088Z,101136.00
2022-12-19T09:53:15.258Z,101136.00
2022-12-19T09:55:46.338Z,101137.00
2022-12-19T09:58:23.579Z,101136.00
2022-12-19T10:00:59.799Z,101131.00
2022-12-19T10:03:39.803Z,101135.00
2022-12-19T10:07:11.442Z,101145.00
2022-12-19T10:10:44.935Z,101133.00
2022-12-19T10:12:45.699Z,101127.00
2022-12-19T10:15:00.169Z,101123.00
2022-12-19T10:17:35.533Z,101124.00
2022-12-19T10:20:19.137Z,101129.00
2022-12-19T10:22:59.538Z,101125.00
2022-12-19T10:25:36.039Z,101132.00
2022-12-19T10:28:25.414Z,101132.00
2022-12-19T10:31:12.580Z,101136.00
2022-12-19T10:33:48.501Z,101119.00
2022-12-19T10:36:15.830Z,101121.00
2022-12-19T10:38:51.188Z,101111.00
2022-12-19T10:41:23.958Z,101113.00
2022-12-19T10:44:01.982Z,101109.00
2022-12-19T10:46:39.437Z,101094.00
2022-12-19T10:49:16.061Z,101086.00
2022-12-19T10:51:53.473Z,101095.00
2022-12-19T10:54:22.208Z,101091.00
2022-12-19T10:56:49.637Z,101087.00
2022-12-19T10:59:18.550Z,101088.00
2022-12-19T11:01:51.865Z,101085.00
2022-12-19T11:04:32.845Z,101095.00
2022-12-19T11:07:17.733Z,101090.00
2022-12-19T11:09:49.921Z,101085.00
2022-12-19T11:16:19.033Z,101077.00
2022-12-19T11:20:32.896Z,101074.00
2022-12-19T11:24:57.207Z,101074.00
2022-12-19T11:29:42.002Z,101067.00
2022-12-19T11:29:46.774Z,101063.00
2022-12-19T11:30:07.050Z,101069.00
2022-12-19T11:32:41.104Z,101052.00
2022-12-19T11:35:19.295Z,101047.00
2022-12-19T11:37:55.543Z,101045.00
2022-12-19T11:40:32.585Z,101051.00
2022-12-19T11:43:42.550Z,101049.00
2022-12-19T11:46:00.411Z,101044.00
2022-12-19T11:48:38.557Z,101028.00
2022-12-19T11:51:14.630Z,101026.00
2022-12-19T11:53:49.259Z,101030.00
2022-12-19T11:56:19.829Z,101029.00
2022-12-19T11:58:50.521Z,101025.00
2022-12-19T12:01:35.137Z,101009.00
2022-12-19T12:04:17.981Z,101012.00
2022-12-19T12:06:50.445Z,101005.00
2022-12-19T12:14:25.783Z,100997.00
2022-12-19T12:19:27.941Z,101004.00
2022-12-19T12:27:24.939Z,100999.00
2022-12-19T12:31:14.257Z,101002.00
2022-12-19T12:31:21.097Z,101009.00
2022-12-19T12:31:26.003Z,101005.00
2022-12-19T12:31:45.687Z,100998.00
2022-12-19T12:31:50.788Z,100998.00
2022-12-19T12:35:46.741Z,100991.00
2022-12-19T12:39:33.627Z,100988.00
2022-12-19T12:42:14.247Z,100986.00
2022-12-19T12:44:45.813Z,100972.00
2022-12-19T12:47:19.721Z,100980.00
2022-12-19T12:49:50.465Z,100985.00
2022-12-19T12:52:21.444Z,100973.00
2022-12-19T12:54:50.206Z,100964.00
2022-12-19T12:57:35.794Z,100967.00
2022-12-19T13:00:24.959Z,100967.00
2022-12-19T13:02:56.276Z,100955.00
2022-12-19T13:05:50.675Z,100962.00
2022-12-19T13:08:37.436Z,100959.00
2022-12-19T13:11:11.362Z,100959.00
2022-12-19T13:13:54.122Z,100951.00
2022-12-19T13:16:50.920Z,100966.00
2022-12-19T13:19:27.492Z,100964.00
2022-12-19T13:22:21.699Z,100957.00
2022-12-19T13:24:50.836Z,100953.00
2022-12-19T13:27:39.789Z,100947.00
2022-12-19T13:30:17.741Z,100956.00
2022-12-19T13:33:08.658Z,100944.00
2022-12-19T13:38:41.173Z,100944.00
2022-12-19T13:39:58.209Z,100945.00
2022-12-19T13:41:45.675Z,100937.00
2022-12-19T13:44:13.397Z,100942.00
2022-12-19T13:46:43.188Z,100946.00
2022-12-19T13:49:17.274Z,100938.00
2022-12-19T13:51:49.946Z,100939.00
2022-12-19T13:54:23.119Z,100933.00
2022-12-19T13:56:51.327Z,100933.00
2022-12-19T13:59:20.020Z,100932.00
2022-12-19T14:01:50.225Z,100934.00
2022-12-19T14:04:28.183Z,100926.00
2022-12-19T14:06:59.143Z,100931.00
2022-12-19T14:11:28.243Z,100935.00
2022-12-19T14:13:57.388Z,100921.00
2022-12-19T14:15:28.922Z,100932.00
2022-12-19T14:17:59.042Z,100922.00
2022-12-19T14:22:03.707Z,100923.00
2022-12-19T14:23:43.061Z,100922.00
2022-12-19T14:28:26.550Z,100922.00
2022-12-19T14:29:11.864Z,100913.00
2022-12-19T14:32:15.153Z,100924.00
2022-12-19T14:35:04.023Z,100932.00
2022-12-19T14:37:31.886Z,100923.00
2022-12-19T14:40:23.542Z,100925.00
2022-12-19T14:43:59.340Z,100928.00
2022-12-19T14:52:51.018Z,100930.00
2022-12-19T14:54:04.578Z,100936.00
2022-12-19T14:54:24.629Z,100920.00
2022-12-19T14:58:50.880Z,100927.00
2022-12-19T15:00:34.892Z,100928.00
2022-12-19T15:03:20.280Z,100926.00
2022-12-19T15:05:48.059Z,100918.00
2022-12-19T15:08:28.052Z,100928.00
2022-12-19T15:11:53.758Z,100931.00
2022-12-19T15:14:54.653Z,100920.00
2022-12-19T15:17:26.269Z,100922.00
2022-12-19T15:19:54.415Z,100924.00
2022-12-19T15:22:21.759Z,100919.00
2022-12-19T15:24:49.761Z,100923.00
2022-12-19T15:27:17.913Z,100915.00
2022-12-19T15:29:45.981Z,100920.00
2022-12-19T15:32:14.761Z,100920.00
2022-12-19T15:34:50.537Z,100927.00
2022-12-19T15:37:18.562Z,100915.00
2022-12-19T15:39:46.044Z,100919.00
2022-12-19T15:42:20.121Z,100928.00
2022-12-19T15:44:48.774Z,100909.00
2022-12-19T15:47:19.276Z,100907.00
2022-12-19T15:49:47.093Z,100907.00
2022-12-19T15:52:17.673Z,100903.00
2022-12-19T15:54:50.225Z,100902.00
2022-12-19T15:57:27.585Z,100904.00
2022-12-19T15:59:56.555Z,100907.00
2022-12-19T16:02:42.720Z,100897.00
2022-12-19T16:05:14.690Z,100896.00
2022-12-19T16:07:42.065Z,100891.00
2022-12-19T16:10:11.332Z,100890.00
2022-12-19T16:12:41.270Z,100894.00
2022-12-19T16:15:16.715Z,100888.00
2022-12-19T16:17:44.104Z,100893.00
2022-12-19T16:20:19.531Z,100884.00
2022-12-19T16:22:46.910Z,100876.00
2022-12-19T16:25:14.609Z,100880.00
2022-12-19T16:27:43.492Z,100890.00
2022-12-19T16:30:19.152Z,100885.00
2022-12-19T16:32:47.463Z,100881.00
2022-12-19T16:35:23.930Z,100875.00
2022-12-19T16:38:01.836Z,100883.00
2022-12-19T16:40:29.147Z,100874.00
2022-12-19T16:43:05.670Z,100877.00
2022-12-19T16:45:34.105Z,100875.00
2022-12-19T16:48:01.490Z,100877.00
2022-12-19T16:50:30.867Z,100876.00
2022-12-19T16:52:58.411Z,100873.00
2022-12-19T16:55:26.807Z,100886.00
2022-12-19T16:57:55.766Z,100871.00
2022-12-19T17:00:24.614Z,100881.00
2022-12-19T17:02:56.560Z,100892.00
2022-12-19T17:05:26.165Z,100880.00
2022-12-19T17:07:53.986Z,100890.00
2022-12-19T17:10:26.557Z,100879.00
2022-12-19T17:12:55.214Z,100878.00
2022-12-19T17:15:26.788Z,100883.00
2022-12-19T17:17:55.619Z,100885.00
2022-12-19T17:20:26.171Z,100884.00
2022-12-19T17:22:53.583Z,100884.00
2022-12-19T17:25:23.088Z,100872.00
2022-12-19T17:27:51.222Z,100876.00
2022-12-19T17:30:18.853Z,100879.00
2022-12-19T17:32:50.133Z,100886.00
2022-12-19T17:35:24.075Z,100886.00
2022-12-19T17:37:56.449Z,100898.00
2022-12-19T17:40:25.704Z,100880.00
2022-12-19T17:42:53.899Z,100886.00
2022-12-19T17:45:22.022Z,100883.00
2022-12-19T17:47:53.093Z,100882.00
2022-12-19T17:50:26.129Z,100884.00
2022-12-19T17:52:54.882Z,100864.00
2022-12-19T17:55:24.593Z,100873.00
2022-12-19T17:57:52.200Z,100873.00
2022-12-19T18:00:26.733Z,100881.00
2022-12-19T18:03:00.327Z,100879.00
2022-12-19T18:05:33.984Z,100881.00
2022-12-19T18:08:01.945Z,100879.00
2022-12-19T18:10:31.362Z,100886.00
2022-12-19T18:12:59.253Z,100882.00
2022-12-19T18:15:26.769Z,100890.00
2022-12-19T18:17:54.821Z,100884.00
2022-12-19T18:20:31.546Z,100883.00
2022-12-19T18:23:00.322Z,100889.00
2022-12-19T18:25:30.224Z,100893.00
2022-12-19T18:27:58.360Z,100877.00
2022-12-19T18:30:26.458Z,100887.00
2022-12-19T18:32:57.024Z,100881.00
2022-12-19T18:35:29.414Z,100883.00
2022-12-19T18:38:00.335Z,100888.00
2022-12-19T18:40:31.668Z,100884.00
2022-12-19T18:42:59.551Z,100886.00
2022-12-19T18:45:31.846Z,100880.00
2022-12-19T18:48:01.331Z,100882.00
2022-12-19T18:50:29.785Z,100861.00
2022-12-19T18:52:57.146Z,100866.00
2022-12-19T18:55:26.288Z,100851.00
2022-12-19T18:57:54.077Z,100845.00
2022-12-19T19:00:23.275Z,100837.00
2022-12-19T19:02:52.705Z,100839.00
2022-12-19T19:05:22.740Z,100854.00
2022-12-19T19:07:51.268Z,100844.00
2022-12-19T19:10:24.121Z,100844.00
2022-12-19T19:12:52.267Z,100844.00
2022-12-19T19:15:21.573Z,100851.00
2022-12-19T19:17:52.885Z,100849.00
2022-12-19T19:20:20.454Z,100831.00
2022-12-19T19:22:48.515Z,100824.00
2022-12-19T19:25:16.709Z,100818.00
2022-12-19T19:27:44.222Z,100835.00
2022-12-19T19:30:12.554Z,100833.00
2022-12-19T19:32:44.616Z,100836.00
2022-12-19T19:35:13.510Z,100836.00
2022-12-19T19:37:40.946Z,100818.00
2022-12-19T19:40:09.490Z,100808.00
2022-12-19T19:42:37.587Z,100807.00
2022-12-19T19:45:05.907Z,100793.00
2022-12-19T19:47:36.448Z,100803.00
2022-12-19T19:50:03.982Z,100795.00
2022-12-19T19:52:31.314Z,100797.00
2022-12-19T19:54:58.846Z,100787.00
2022-12-19T19:57:26.161Z,100797.00
2022-12-19T19:59:54.160Z,100791.00
2022-12-19T20:02:21.784Z,100802.00
2022-12-19T20:04:49.218Z,100805.00
2022-12-19T20:07:16.706Z,100799.00
2022-12-19T20:09:45.586Z,100785.00
2022-12-19T20:12:13.751Z,100783.00
2022-12-19T20:14:41.196Z,100790.00
2022-12-19T20:17:09.192Z,100782.00
2022-12-19T20:19:36.632Z,100782.00
2022-12-19T20:22:04.386Z,100775.00
2022-12-19T20:24:31.897Z,100775.00
2022-12-19T20:26:59.478Z,100781.00
2022-12-19T20:29:27.000Z,100768.00
2022-12-19T20:31:55.654Z,100761.00
2022-12-19T20:34:25.146Z,100765.00
2022-12-19T20:36:52.485Z,100757.00
2022-12-19T20:39:21.454Z,100769.00
2022-12-19T20:41:49.369Z,100761.00
2022-12-19T20:44:23.643Z,100756.00
2022-12-19T20:46:52.014Z,100756.00
2022-12-19T20:49:19.628Z,100762.00
2022-12-19T20:51:47.817Z,100749.00
2022-12-19T20:54:15.962Z,100756.00
2022-12-19T20:56:44.143Z,100765.00
2022-12-19T20:59:11.545Z,100770.00
2022-12-19T21:01:39.085Z,100750.00
2022-12-19T21:04:06.696Z,100754.00
2022-12-19T21:06:36.598Z,100768.00
2022-12-19T21:09:05.079Z,100763.00
2022-12-19T21:11:34.869Z,100772.00
2022-12-19T21:14:02.449Z,100776.00
2022-12-19T21:16:30.039Z,100768.00
2022-12-19T21:18:57.668Z,100777.00
2022-12-19T21:21:28.023Z,100780.00
2022-12-19T21:23:55.764Z,100787.00
2022-12-19T21:26:24.946Z,100776.00
2022-12-19T21:28:52.873Z,100774.00
2022-12-19T21:31:22.643Z,100786.00
2022-12-19T21:33:53.194Z,100781.00
2022-12-19T21:36:22.387Z,100785.00
2022-12-19T21:38:52.570Z,100775.00
2022-12-19T21:41:20.869Z,100765.00
2022-12-19T21:43:52.578Z,100758.00
2022-12-19T21:46:21.932Z,100748.00
2022-12-19T21:48:51.119Z,100761.00
2022-12-19T21:51:20.342Z,100769.00
2022-12-19T21:53:48.336Z,100769.00
2022-12-19T21:56:23.316Z,100772.00
2022-12-19T21:58:52.539Z,100770.00
2022-12-19T22:01:20.640Z,100770.00
2022-12-19T22:03:48.746Z,100772.00
2022-12-19T22:06:23.969Z,100774.00
2022-12-19T22:08:55.229Z,100778.00
2022-12-19T22:11:23.099Z,100768.00
2022-12-19T22:13:51.760Z,100763.00
2022-12-19T22:16:19.587Z,100774.00
2022-12-19T22:18:47.154Z,100775.00
2022-12-19T22:21:15.891Z,100780.00
2022-12-19T22:23:43.504Z,100797.00
2022-12-19T22:26:14.088Z,100780.00
2022-12-19T22:28:42.896Z,100796.00
2022-12-19T22:31:19.956Z,100791.00
2022-12-19T22:33:49.141Z,100792.00
2022-12-19T22:36:20.978Z,100789.00
2022-12-19T22:38:51.489Z,100794.00
2022-12-19T22:41:19.879Z,100794.00
2022-12-19T22:43:47.714Z,100800.00
2022-12-19T22:46:18.045Z,100795.00
2022-12-19T22:48:51.116Z,100800.00
2022-12-19T22:51:19.532Z,100783.00
2022-12-19T22:53:47.669Z,100798.00
2022-12-19T22:56:17.291Z,100791.00
2022-12-19T22:58:46.671Z,100797.00
2022-12-19T23:01:16.504Z,100791.00
2022-12-19T23:03:45.197Z,100793.00
2022-12-19T23:06:13.605Z,100802.00
2022-12-19T23:08:42.000Z,100786.00
2022-12-19T23:11:10.929Z,100779.00
2022-12-19T23:13:38.908Z,100778.00
2022-12-19T23:16:06.560Z,100768.00
2022-12-19T23:18:34.053Z,100763.00
2022-12-19T23:21:09.641Z,100772.00
2022-12-19T23:23:38.718Z,100764.00
2022-12-19T23:26:11.351Z,100768.00
2022-12-19T23:28:43.306Z,100763.00
2022-12-19T23:31:14.549Z,100769.00
2022-12-19T23:33:42.077Z,100773.00
2022-12-19T23:36:10.465Z,100768.00
2022-12-19T23:38:37.753Z,100764.00
2022-12-19T23:41:06.886Z,100772.00
2022-12-19T23:43:35.212Z,100757.00
2022-12-19T23:46:06.555Z,100747.00
2022-12-19T23:48:33.957Z,100737.00
2022-12-19T23:51:03.925Z,100736.00
2022-12-19T23:53:32.225Z,100743.00
2022-12-19T23:56:00.948Z,100739.00
2022-12-19T23:58:28.300Z,100754.00
